Terminal Aerodrome Forecast
Issued by NWS

Home | Current Version | Previous Version | Graphics & Text | Print | Product List | Glossary On
Versions: 1 2 3 4 5 6 7 8 9 10 11 12 13 14 15 16 17 18 19 20 21
419
FTUS41 KCLE 180310 AAA
TAFFDY
TAF AMD
KFDY 180310Z 1803/1824 25012KT P6SM OVC007
     FM181400 27012KT 5SM BR OVC004
     FM181600 26010KT P6SM OVC009
     FM181800 26010KT P6SM OVC015=

USA.gov is the U.S. government's official web portal to all federal, state and local government web resources and services.